Time;durP1;ratioP1;P1;durP2;ratioP2;P2;SDS_P1;SDS_P2;PMS_P1;PMS_P2;Temp;Humidity;BMP_temperature;BMP_pressure;BME280_temperature;BME280_humidity;BME280_pressure;Samples;Min_cycle;Max_cycle;Signal;HPM_P1;HPM_P2
2022/12/14 00:02:05;;;;;;;36.58;21.27;;;;;;;-5.24;94.16;99423.50;5089884;28;20293;-59
2022/12/14 00:04:32;;;;;;;41.25;23.00;;;;;;;-5.18;94.23;99418.03;5101512;28;20258;-59
2022/12/14 00:06:58;;;;;;;39.65;21.40;;;;;;;-5.14;94.32;99410.94;5081408;28;20262;-59
2022/12/14 00:09:25;;;;;;;43.08;21.48;;;;;;;-5.16;94.26;99412.75;5085679;28;20271;-59
2022/12/14 00:11:52;;;;;;;42.97;22.48;;;;;;;-5.19;94.28;99397.25;5097094;28;20238;-58
2022/12/14 00:14:18;;;;;;;45.63;21.08;;;;;;;-5.20;94.14;99401.59;5083987;28;20284;-58
2022/12/14 00:16:46;;;;;;;45.35;22.17;;;;;;;-5.17;94.03;99411.09;5087688;28;20308;-59
2022/12/14 00:19:13;;;;;;;48.60;21.00;;;;;;;-5.22;94.16;99413.03;5091087;28;20222;-58
2022/12/14 00:21:40;;;;;;;37.95;20.15;;;;;;;-5.24;94.22;99399.19;5099487;28;20827;-58
2022/12/14 00:24:07;;;;;;;33.47;19.33;;;;;;;-5.26;94.44;99390.59;5088596;28;20196;-58
2022/12/14 00:26:33;;;;;;;46.65;22.35;;;;;;;-5.24;94.66;99383.56;5087742;28;20257;-58
2022/12/14 00:29:01;;;;;;;40.67;22.30;;;;;;;-5.19;94.67;99382.47;5098469;28;20262;-58
2022/12/14 00:31:28;;;;;;;37.38;20.40;;;;;;;-5.20;94.71;99385.97;5092873;28;20259;-59
2022/12/14 00:33:56;;;;;;;39.40;20.75;;;;;;;-5.22;94.63;99386.97;5099445;28;20271;-59
2022/12/14 00:36:23;;;;;;;42.83;21.98;;;;;;;-5.21;94.60;99375.63;5096107;28;20261;-58
2022/12/14 00:38:50;;;;;;;45.45;21.38;;;;;;;-5.26;94.57;99370.63;5094661;28;20757;-58
2022/12/14 00:41:17;;;;;;;37.28;19.65;;;;;;;-5.28;94.57;99374.19;5087760;28;20632;-58
2022/12/14 00:43:43;;;;;;;41.13;20.10;;;;;;;-5.26;94.73;99369.75;5091000;28;20209;-58
2022/12/14 00:46:10;;;;;;;36.33;20.10;;;;;;;-5.21;94.64;99360.81;5100437;28;20260;-58
2022/12/14 00:48:36;;;;;;;39.58;18.75;;;;;;;-5.22;94.68;99360.91;5097203;28;20296;-57
2022/12/14 00:51:04;;;;;;;38.05;20.17;;;;;;;-5.21;94.58;99357.38;5095884;28;20771;-58
2022/12/14 00:53:31;;;;;;;36.08;20.15;;;;;;;-5.20;94.62;99348.66;5101183;28;20197;-58
2022/12/14 00:56:05;;;;;;;38.20;21.92;;;;;;;-5.24;94.39;99347.06;5098643;28;20241;-59
2022/12/14 00:58:31;;;;;;;39.97;20.70;;;;;;;-5.21;94.50;99345.19;5092526;28;20305;-58
2022/12/14 01:00:59;;;;;;;41.33;20.05;;;;;;;-5.21;94.35;99345.19;5099358;28;20256;-59
2022/12/14 01:03:26;;;;;;;38.22;21.00;;;;;;;-5.15;94.23;99350.16;5085734;28;20197;-59
2022/12/14 01:05:53;;;;;;;38.05;20.85;;;;;;;-5.17;94.16;99344.16;5087772;28;20265;-58
2022/12/14 01:08:21;;;;;;;41.25;21.08;;;;;;;-5.12;94.12;99341.34;5099571;28;20801;-59
2022/12/14 01:10:48;;;;;;;42.83;19.85;;;;;;;-5.15;94.21;99344.09;5100515;28;20233;-58
2022/12/14 01:13:15;;;;;;;37.88;19.17;;;;;;;-5.10;94.10;99344.75;5086716;28;20229;-59
2022/12/14 01:15:41;;;;;;;38.40;20.02;;;;;;;-5.10;94.19;99347.38;5091021;28;20280;-59
2022/12/14 01:18:08;;;;;;;32.92;20.10;;;;;;;-5.15;94.02;99342.34;5089702;28;20198;-59
2022/12/14 01:20:34;;;;;;;35.13;20.27;;;;;;;-5.15;93.95;99344.09;5093112;28;20719;-59
2022/12/14 01:23:01;;;;;;;34.15;20.65;;;;;;;-5.12;94.08;99343.94;5092584;28;20257;-58
2022/12/14 01:25:29;;;;;;;41.00;20.60;;;;;;;-5.18;94.08;99334.63;5095499;28;20272;-58
2022/12/14 01:27:56;;;;;;;48.38;22.50;;;;;;;-5.14;94.03;99333.63;5088296;28;20639;-59
2022/12/14 01:30:22;;;;;;;37.30;20.58;;;;;;;-5.11;94.07;99335.25;5095215;28;20714;-59
2022/12/14 01:32:49;;;;;;;34.97;19.10;;;;;;;-5.09;94.03;99324.75;5094088;28;20265;-59
2022/12/14 01:35:16;;;;;;;28.67;18.63;;;;;;;-5.02;94.01;99327.03;5097300;28;20230;-59
2022/12/14 01:37:42;;;;;;;35.33;19.17;;;;;;;-5.11;93.83;99322.22;5096190;28;20652;-59
2022/12/14 01:40:09;;;;;;;33.65;19.75;;;;;;;-5.16;93.99;99318.94;5095267;28;20262;-59
2022/12/14 01:42:38;;;;;;;35.13;20.92;;;;;;;-5.15;94.25;99320.66;5088708;28;20228;-59
2022/12/14 01:45:06;;;;;;;31.45;17.85;;;;;;;-5.17;94.44;99319.88;5098847;28;20240;-59
2022/12/14 01:47:40;;;;;;;37.05;19.55;;;;;;;-5.21;94.49;99318.28;5095094;28;20325;-60
2022/12/14 01:50:10;;;;;;;47.90;19.67;;;;;;;-5.19;94.53;99317.34;5101874;28;20248;-59
2022/12/14 01:52:40;;;;;;;37.40;19.35;;;;;;;-5.20;94.67;99306.97;5091756;28;20201;-59
2022/12/14 01:55:09;;;;;;;31.00;19.55;;;;;;;-5.21;94.66;99305.25;5095913;28;20294;-59
2022/12/14 01:57:40;;;;;;;38.47;18.63;;;;;;;-5.19;94.58;99296.50;5092790;28;20305;-59
2022/12/14 02:00:09;;;;;;;36.17;19.20;;;;;;;-5.15;94.68;99292.81;5089591;28;20196;-59
2022/12/14 02:02:36;;;;;;;32.90;19.25;;;;;;;-5.06;94.58;99295.97;5099093;28;20201;-59
2022/12/14 02:05:05;;;;;;;37.05;18.15;;;;;;;-5.08;94.46;99293.41;5098730;28;20233;-59
2022/12/14 02:07:32;;;;;;;34.47;21.65;;;;;;;-5.10;94.58;99290.03;5088803;28;20257;-59
2022/12/14 02:10:02;;;;;;;39.15;19.70;;;;;;;-5.14;94.44;99284.09;5089234;28;20671;-60
2022/12/14 02:12:31;;;;;;;34.15;19.25;;;;;;;-5.09;94.51;99286.50;5087002;28;20657;-59
2022/12/14 02:15:00;;;;;;;38.63;20.38;;;;;;;-5.19;94.47;99272.16;5101919;28;20288;-59
2022/12/14 02:17:27;;;;;;;34.45;20.13;;;;;;;-5.18;94.27;99269.50;5093849;28;20689;-59
2022/12/14 02:19:54;;;;;;;35.88;18.95;;;;;;;-5.17;94.19;99267.75;5092706;28;20606;-59
2022/12/14 02:22:51;;;;;;;31.73;19.25;;;;;;;-5.20;94.32;99263.50;5094096;28;20263;-59
2022/12/14 02:25:34;;;;;;;37.55;18.48;;;;;;;-5.20;94.44;99271.31;5090836;28;20206;-60
2022/12/14 02:28:12;;;;;;;27.80;17.52;;;;;;;-5.20;94.42;99268.72;5095127;28;20257;-59
2022/12/14 02:30:42;;;;;;;32.55;17.83;;;;;;;-5.21;94.34;99269.63;5101197;28;21013;-60
2022/12/14 02:33:23;;;;;;;38.58;19.55;;;;;;;-5.24;94.31;99268.91;5103171;28;20216;-59
2022/12/14 02:35:53;;;;;;;36.80;19.33;;;;;;;-5.26;94.16;99269.00;5098033;28;20241;-59
2022/12/14 02:38:31;;;;;;;30.70;18.17;;;;;;;-5.27;94.40;99261.25;5087416;28;20721;-60
2022/12/14 02:41:03;;;;;;;32.00;19.02;;;;;;;-5.23;94.31;99258.44;5087074;28;20252;-59
2022/12/14 02:43:32;;;;;;;30.38;16.90;;;;;;;-5.19;94.37;99267.81;5099489;28;20201;-60
2022/12/14 02:46:05;;;;;;;33.35;16.92;;;;;;;-5.23;94.27;99255.81;5096323;28;20244;-59
2022/12/14 02:48:36;;;;;;;35.28;18.85;;;;;;;-5.27;94.15;99254.28;5097880;28;20254;-59
2022/12/14 02:51:10;;;;;;;37.70;19.83;;;;;;;-5.24;94.38;99251.53;5090899;28;20240;-59
2022/12/14 02:53:42;;;;;;;28.30;16.48;;;;;;;-5.28;94.50;99251.72;5101191;28;20320;-59
2022/12/14 02:56:10;;;;;;;34.75;19.35;;;;;;;-5.26;94.21;99255.09;5086290;28;20271;-59
2022/12/14 02:58:39;;;;;;;31.90;17.48;;;;;;;-5.31;94.35;99248.34;5082631;28;20195;-60
2022/12/14 03:01:09;;;;;;;33.33;18.27;;;;;;;-5.31;94.41;99248.34;5100960;28;20248;-59
2022/12/14 03:03:35;;;;;;;35.67;18.13;;;;;;;-5.32;94.39;99240.59;5088302;28;20226;-59
2022/12/14 03:06:13;;;;;;;34.72;17.90;;;;;;;-5.39;94.25;99240.00;5097313;28;20261;-60
2022/12/14 03:08:42;;;;;;;37.08;19.23;;;;;;;-5.57;94.29;99241.63;5102246;28;20222;-59
2022/12/14 03:11:11;;;;;;;28.98;16.77;;;;;;;-5.72;94.62;99240.50;5096789;28;20249;-59
2022/12/14 03:13:41;;;;;;;36.75;19.35;;;;;;;-5.71;94.80;99237.00;5100527;28;20229;-59
2022/12/14 03:16:12;;;;;;;28.90;16.98;;;;;;;-5.64;94.94;99223.72;5097055;28;20249;-59
2022/12/14 03:18:42;;;;;;;33.33;19.38;;;;;;;-5.65;94.95;99215.06;5097557;28;20285;-59
2022/12/14 03:21:12;;;;;;;25.42;16.30;;;;;;;-5.65;95.08;99219.44;5089380;28;20268;-59
2022/12/14 03:23:41;;;;;;;31.20;17.55;;;;;;;-5.73;94.93;99220.59;5100780;28;20250;-60
2022/12/14 03:26:12;;;;;;;29.63;17.20;;;;;;;-5.77;94.81;99223.38;5100735;28;20252;-59
2022/12/14 03:28:44;;;;;;;37.05;19.02;;;;;;;-5.92;94.70;99215.31;5099018;28;20258;-59
2022/12/14 03:31:15;;;;;;;34.92;18.00;;;;;;;-5.92;94.89;99217.03;5099567;28;20225;-60
2022/12/14 03:33:43;;;;;;;33.50;17.30;;;;;;;-5.99;94.87;99208.66;5095392;28;20257;-60
2022/12/14 03:36:13;;;;;;;30.90;16.92;;;;;;;-6.04;94.92;99202.81;5091173;28;20323;-59
2022/12/14 03:38:42;;;;;;;33.88;18.10;;;;;;;-6.14;95.03;99197.13;5098938;28;20260;-61
2022/12/14 03:41:15;;;;;;;27.85;16.45;;;;;;;-6.13;95.03;99196.22;5078532;28;20764;-59
2022/12/14 03:43:52;;;;;;;29.92;17.08;;;;;;;-6.14;95.00;99194.53;5100336;28;20285;-60
2022/12/14 03:46:25;;;;;;;35.40;17.33;;;;;;;-6.15;95.04;99192.00;5101352;28;20236;-59
2022/12/14 03:48:54;;;;;;;35.22;18.08;;;;;;;-6.16;95.09;99183.34;5099014;28;20241;-60
2022/12/14 03:51:28;;;;;;;30.10;17.08;;;;;;;-6.12;95.26;99186.66;5091339;28;20260;-59
2022/12/14 03:53:59;;;;;;;31.35;16.65;;;;;;;-6.13;95.49;99169.34;5098420;28;20414;-59
2022/12/14 03:56:34;;;;;;;29.05;16.67;;;;;;;-6.13;95.24;99172.78;5099223;28;20308;-60
2022/12/14 03:59:06;;;;;;;29.85;18.20;;;;;;;-6.25;94.89;99171.56;5085560;28;20216;-60
2022/12/14 04:01:40;;;;;;;29.05;16.83;;;;;;;-6.34;95.08;99166.69;5099736;28;20312;-59
2022/12/14 04:04:11;;;;;;;35.03;16.33;;;;;;;-6.33;95.31;99159.78;5101367;28;20227;-59
2022/12/14 04:06:42;;;;;;;28.23;16.50;;;;;;;-6.33;95.45;99159.78;5090140;28;20222;-59
2022/12/14 04:09:20;;;;;;;31.95;18.42;;;;;;;-6.31;95.55;99157.94;5093260;28;20288;-60
2022/12/14 04:20:11;;;;;;;29.25;16.90;;;;;;;-6.37;95.55;99140.84;5098212;28;20221;-60
2022/12/14 04:22:39;;;;;;;28.35;17.63;;;;;;;-6.41;95.28;99147.06;5098060;28;20196;-59
2022/12/14 04:27:56;;;;;;;30.70;17.70;;;;;;;-6.45;95.00;99137.69;5095014;28;20220;-59
2022/12/14 04:30:21;;;;;;;27.30;15.45;;;;;;;-6.44;94.75;99145.44;5094570;28;20197;-60
2022/12/14 04:32:51;;;;;;;31.63;16.87;;;;;;;-6.44;94.43;99140.22;5099280;28;20217;-59
2022/12/14 04:35:20;;;;;;;27.88;16.83;;;;;;;-6.48;94.36;99143.84;5098187;28;20226;-59
2022/12/14 04:37:49;;;;;;;30.65;17.23;;;;;;;-6.51;94.37;99137.91;5091246;28;20713;-59
2022/12/14 04:40:19;;;;;;;36.15;18.60;;;;;;;-6.53;94.42;99134.53;5089515;28;20198;-59
2022/12/14 04:42:49;;;;;;;28.98;17.20;;;;;;;-6.60;94.33;99126.13;5086524;28;20224;-59
2022/12/14 04:45:20;;;;;;;32.25;18.23;;;;;;;-6.62;94.32;99123.59;5095067;28;20666;-59
2022/12/14 04:47:56;;;;;;;30.40;17.98;;;;;;;-6.68;94.23;99129.06;5097803;28;20280;-60
2022/12/14 04:50:27;;;;;;;32.13;17.92;;;;;;;-6.61;94.19;99119.25;5092377;28;20244;-59
2022/12/14 04:52:58;;;;;;;33.80;17.45;;;;;;;-6.70;94.50;99112.69;5098548;28;20239;-58
2022/12/14 04:55:27;;;;;;;35.78;17.27;;;;;;;-6.71;94.85;99116.16;5085066;28;20224;-59
2022/12/14 04:57:56;;;;;;;38.55;17.75;;;;;;;-6.60;95.40;99112.31;5088021;28;20292;-60
2022/12/14 05:00:23;;;;;;;33.53;17.85;;;;;;;-6.52;96.02;99105.88;5096804;28;20263;-59
2022/12/14 05:03:05;;;;;;;29.95;17.48;;;;;;;-6.64;95.85;99104.63;5100233;28;20190;-66
2022/12/14 05:05:36;;;;;;;32.42;17.65;;;;;;;-6.68;95.70;99100.47;5081627;28;20244;-66
2022/12/14 05:08:10;;;;;;;28.60;16.85;;;;;;;-6.69;95.47;99096.16;5081371;28;20198;-66
2022/12/14 05:10:40;;;;;;;34.78;19.17;;;;;;;-6.71;95.28;99097.97;5080217;28;20257;-66
2022/12/14 05:13:10;;;;;;;27.55;18.20;;;;;;;-6.66;95.01;99105.59;5081395;28;20629;-66
2022/12/14 05:15:40;;;;;;;29.45;16.05;;;;;;;-6.78;94.75;99099.13;5082897;28;20291;-66
2022/12/14 05:18:09;;;;;;;29.58;16.88;;;;;;;-6.81;94.80;99092.28;5080682;28;20238;-67
2022/12/14 05:20:35;;;;;;;34.10;17.58;;;;;;;-6.78;94.94;99088.72;5100871;28;20237;-67
2022/12/14 05:23:02;;;;;;;25.08;16.80;;;;;;;-6.77;94.96;99082.63;5103099;28;20308;-67
2022/12/14 05:25:29;;;;;;;30.75;19.83;;;;;;;-6.83;95.19;99081.09;5086682;28;20257;-66
2022/12/14 05:27:55;;;;;;;34.40;18.67;;;;;;;-6.85;95.07;99082.09;5083775;28;20231;-66
2022/12/14 05:30:22;;;;;;;27.23;16.38;;;;;;;-6.83;95.08;99085.47;5083503;28;20643;-67
2022/12/14 05:32:49;;;;;;;27.65;18.20;;;;;;;-6.85;94.96;99079.50;5088856;28;20237;-66
2022/12/14 05:35:17;;;;;;;32.88;17.45;;;;;;;-6.95;94.67;99075.56;5095875;28;20256;-66
2022/12/14 05:37:43;;;;;;;31.10;18.15;;;;;;;-7.01;94.72;99069.69;5086535;28;20349;-66
2022/12/14 05:40:11;;;;;;;29.48;15.95;;;;;;;-6.94;94.84;99062.50;5069256;28;20194;-66
2022/12/14 05:42:38;;;;;;;32.13;18.33;;;;;;;-6.94;94.72;99070.31;5072222;28;20202;-66
2022/12/14 05:45:05;;;;;;;29.35;16.20;;;;;;;-6.96;94.69;99058.25;5071050;28;20230;-66
2022/12/14 05:47:31;;;;;;;30.00;18.85;;;;;;;-6.93;94.58;99063.34;5077406;28;20463;-66
2022/12/14 05:49:58;;;;;;;30.42;16.33;;;;;;;-6.93;94.58;99058.97;5075338;28;20265;-67
2022/12/14 05:52:26;;;;;;;32.88;17.05;;;;;;;-6.95;94.32;99053.00;5075283;28;20294;-67
2022/12/14 05:54:53;;;;;;;27.52;16.98;;;;;;;-7.01;94.18;99048.91;5081746;28;20214;-66
2022/12/14 05:57:20;;;;;;;34.15;18.00;;;;;;;-7.00;94.09;99042.78;5082854;28;20261;-66
2022/12/14 05:59:47;;;;;;;29.50;16.35;;;;;;;-7.00;93.86;99040.19;5071347;28;20262;-66
2022/12/14 06:02:14;;;;;;;30.75;17.38;;;;;;;-7.01;93.96;99035.91;5065483;28;20234;-66
2022/12/14 06:04:40;;;;;;;31.20;16.92;;;;;;;-7.01;94.14;99035.91;5062867;28;20278;-66
2022/12/14 06:07:09;;;;;;;28.70;18.42;;;;;;;-7.07;93.91;99037.91;5066295;28;20654;-65
2022/12/14 06:09:37;;;;;;;30.55;17.23;;;;;;;-7.10;93.94;99032.81;5078762;28;20294;-69
2022/12/14 06:12:04;;;;;;;34.08;17.20;;;;;;;-7.08;93.95;99033.59;5079005;28;20229;-66
2022/12/14 06:14:30;;;;;;;28.45;17.00;;;;;;;-7.08;93.84;99039.66;5075801;28;20230;-67
2022/12/14 06:16:57;;;;;;;27.83;16.95;;;;;;;-7.08;93.72;99024.09;5065836;28;20258;-66
2022/12/14 06:19:24;;;;;;;35.30;18.10;;;;;;;-7.10;93.54;99020.69;5065775;28;20203;-66
2022/12/14 06:21:50;;;;;;;30.17;17.77;;;;;;;-7.12;93.51;99026.84;5071935;28;20748;-66
2022/12/14 06:24:17;;;;;;;30.73;17.27;;;;;;;-7.12;93.71;99016.47;5067877;28;20225;-67
2022/12/14 06:26:45;;;;;;;30.50;19.10;;;;;;;-7.12;93.96;99017.28;5074541;28;20292;-67
2022/12/14 06:29:15;;;;;;;34.85;18.45;;;;;;;-7.09;94.37;99021.53;5062239;28;20195;-66
2022/12/14 06:31:42;;;;;;;30.17;18.50;;;;;;;-6.86;95.15;99018.03;5061211;28;20254;-66
2022/12/14 06:34:09;;;;;;;26.25;15.48;;;;;;;-6.74;95.36;99014.91;5062252;28;20187;-66
2022/12/14 06:36:38;;;;;;;29.92;17.83;;;;;;;-6.78;95.41;99009.94;5061118;28;20261;-66
2022/12/14 06:39:06;;;;;;;27.55;17.20;;;;;;;-6.77;95.29;99012.47;5078538;28;20266;-66
2022/12/14 06:41:33;;;;;;;27.60;16.10;;;;;;;-6.84;94.99;99008.41;5080388;28;20269;-66
2022/12/14 06:44:05;;;;;;;35.85;17.90;;;;;;;-6.87;94.69;99012.00;5081945;28;20229;-66
2022/12/14 06:46:32;;;;;;;29.75;17.70;;;;;;;-6.90;94.37;99001.72;5068506;28;20234;-60
2022/12/14 06:48:59;;;;;;;36.08;18.92;;;;;;;-6.88;94.17;99004.25;5080093;28;20202;-60
2022/12/14 06:51:26;;;;;;;29.95;18.67;;;;;;;-6.90;93.84;99003.47;5079638;28;20266;-60
2022/12/14 06:53:54;;;;;;;31.48;17.70;;;;;;;-6.87;93.82;99004.19;5082349;28;20195;-60
2022/12/14 06:56:22;;;;;;;34.90;18.02;;;;;;;-6.85;93.62;99009.34;5081318;28;20233;-60
2022/12/14 06:58:49;;;;;;;41.60;19.00;;;;;;;-6.86;93.55;98999.81;5080801;28;20206;-60
2022/12/14 07:01:19;;;;;;;23.52;16.73;;;;;;;-6.74;93.90;98999.31;5081237;28;20302;-60
2022/12/14 07:03:48;;;;;;;31.70;20.70;;;;;;;-6.69;93.93;98999.16;5082118;28;20205;-60
2022/12/14 07:06:14;;;;;;;29.92;17.95;;;;;;;-6.68;93.82;99006.88;5080181;28;20324;-60
2022/12/14 07:08:41;;;;;;;29.95;18.10;;;;;;;-6.68;93.75;98998.25;5082024;28;20226;-61
2022/12/14 07:11:10;;;;;;;31.65;17.63;;;;;;;-6.70;93.97;99000.03;5080343;28;20272;-60
2022/12/14 07:13:37;;;;;;;31.85;17.35;;;;;;;-6.66;94.00;98997.25;5081836;28;20766;-60
2022/12/14 07:16:04;;;;;;;28.30;16.60;;;;;;;-6.63;93.92;98998.88;5079587;28;20317;-61
2022/12/14 07:18:33;;;;;;;23.38;15.75;;;;;;;-6.64;94.03;98997.22;5079427;28;20293;-60
2022/12/14 07:21:01;;;;;;;27.00;16.55;;;;;;;-6.62;94.01;98992.78;5078997;28;20289;-60
2022/12/14 07:23:30;;;;;;;34.53;17.42;;;;;;;-6.63;94.00;98997.16;5081707;28;20225;-60
2022/12/14 07:26:01;;;;;;;28.02;16.15;;;;;;;-6.60;94.14;98996.16;5080299;28;20338;-68
2022/12/14 07:28:27;;;;;;;26.00;16.70;;;;;;;-6.61;94.19;98997.09;5076670;28;20199;-60
2022/12/14 07:30:55;;;;;;;25.63;17.55;;;;;;;-6.55;94.27;98990.78;5079590;28;20401;-60
2022/12/14 07:33:21;;;;;;;24.13;15.88;;;;;;;-6.49;94.34;98993.09;5081426;28;20257;-60
2022/12/14 07:35:50;;;;;;;29.88;15.40;;;;;;;-6.43;94.44;98996.28;5079715;28;20252;-61
2022/12/14 07:38:17;;;;;;;30.17;16.77;;;;;;;-6.36;94.46;98999.47;5080697;28;20237;-60
2022/12/14 07:40:43;;;;;;;25.15;15.98;;;;;;;-6.30;94.43;99003.56;5080648;28;20241;-60
2022/12/14 07:43:10;;;;;;;23.20;15.20;;;;;;;-6.27;94.27;99006.03;5081003;28;20198;-60
2022/12/14 07:45:37;;;;;;;28.17;15.52;;;;;;;-6.19;94.06;99003.13;5079696;28;20253;-61
2022/12/14 07:48:06;;;;;;;28.35;16.10;;;;;;;-6.18;93.86;99008.28;5078995;28;20305;-60
2022/12/14 07:50:33;;;;;;;24.63;15.20;;;;;;;-6.08;93.46;99001.72;5078424;28;20229;-60
2022/12/14 07:53:01;;;;;;;33.45;16.48;;;;;;;-6.11;93.20;99001.88;5078960;28;20198;-60
2022/12/14 07:55:28;;;;;;;29.50;18.02;;;;;;;-6.08;92.88;99000.91;5079241;28;20650;-60
2022/12/14 07:57:55;;;;;;;27.42;16.77;;;;;;;-6.00;92.79;98993.59;5079079;28;20281;-60
2022/12/14 08:00:22;;;;;;;25.95;17.63;;;;;;;-5.96;92.69;98991.72;5078520;28;20217;-60
2022/12/14 08:02:49;;;;;;;25.90;16.80;;;;;;;-5.89;92.64;98995.69;5080156;28;20206;-60
2022/12/14 08:05:15;;;;;;;28.65;15.25;;;;;;;-5.79;91.96;98993.53;5078057;28;20270;-61
2022/12/14 08:07:42;;;;;;;25.77;16.17;;;;;;;-5.71;91.22;98988.81;5079812;28;20210;-60
2022/12/14 08:10:10;;;;;;;23.50;15.15;;;;;;;-5.81;91.10;98988.41;5079271;28;20198;-60
2022/12/14 08:12:37;;;;;;;21.98;15.10;;;;;;;-5.84;91.29;98991.13;5080242;28;20225;-60
2022/12/14 08:15:04;;;;;;;24.05;15.80;;;;;;;-5.77;91.37;98991.72;5080266;28;20186;-60
2022/12/14 08:17:32;;;;;;;25.17;14.40;;;;;;;-5.76;91.51;98986.44;5078916;28;20253;-61
2022/12/14 08:19:58;;;;;;;32.45;16.10;;;;;;;-5.68;91.48;98979.13;5079750;28;20262;-61
2022/12/14 08:22:25;;;;;;;24.50;15.45;;;;;;;-5.55;91.42;98981.16;5079216;28;20242;-60
2022/12/14 08:24:52;;;;;;;28.55;15.90;;;;;;;-5.55;91.36;98978.56;5080563;28;20259;-61
2022/12/14 08:27:20;;;;;;;23.63;14.82;;;;;;;-5.52;91.18;98988.81;5079701;28;20271;-60
2022/12/14 08:29:46;;;;;;;23.73;13.77;;;;;;;-5.60;91.33;98985.75;5079050;28;20292;-60
2022/12/14 08:32:13;;;;;;;21.55;14.48;;;;;;;-5.56;91.17;98985.50;5079102;28;20698;-61
2022/12/14 08:34:40;;;;;;;29.80;15.50;;;;;;;-5.30;90.46;98986.06;5079682;28;20228;-60
2022/12/14 08:37:06;;;;;;;29.10;18.45;;;;;;;-5.17;89.25;98987.19;5078411;28;20276;-60
2022/12/14 08:39:33;;;;;;;26.33;15.35;;;;;;;-5.16;89.13;98980.22;5078729;28;20210;-60
2022/12/14 08:42:00;;;;;;;19.70;11.93;;;;;;;-5.07;89.32;98984.97;5077974;28;20240;-60
2022/12/14 08:44:28;;;;;;;25.83;13.68;;;;;;;-4.98;88.24;98992.38;5077959;28;20245;-60
2022/12/14 08:46:54;;;;;;;22.23;14.38;;;;;;;-4.99;87.88;98977.63;5078898;28;20238;-60
2022/12/14 08:49:21;;;;;;;22.45;14.35;;;;;;;-4.88;87.61;98984.91;5078265;28;20266;-60
2022/12/14 08:51:48;;;;;;;28.30;15.18;;;;;;;-4.99;88.15;98988.06;5081544;28;20237;-60
2022/12/14 08:54:16;;;;;;;23.10;14.18;;;;;;;-4.99;88.08;98995.88;5082241;28;20194;-61
2022/12/14 08:56:42;;;;;;;26.42;14.57;;;;;;;-4.93;88.37;98984.31;5082189;28;20255;-60
2022/12/14 08:59:09;;;;;;;19.17;13.32;;;;;;;-4.82;88.66;98981.19;5082817;28;20194;-61
2022/12/14 09:01:37;;;;;;;18.60;12.45;;;;;;;-4.85;88.30;98986.56;5083182;28;20240;-60
2022/12/14 09:04:06;;;;;;;23.25;14.63;;;;;;;-4.76;87.88;98980.88;5083042;28;20224;-61
2022/12/14 09:06:34;;;;;;;23.55;14.30;;;;;;;-4.61;86.99;98987.13;5081392;28;20260;-60
2022/12/14 09:09:01;;;;;;;22.35;14.35;;;;;;;-4.56;86.42;98985.94;5083397;28;20220;-60
2022/12/14 09:11:28;;;;;;;22.40;13.10;;;;;;;-4.61;86.35;98987.94;5082101;28;20248;-61
2022/12/14 09:13:55;;;;;;;21.02;12.77;;;;;;;-4.52;86.40;98986.66;5082903;28;20198;-60
2022/12/14 09:16:24;;;;;;;25.70;14.23;;;;;;;-4.51;86.81;98987.47;5081892;28;20237;-60
2022/12/14 09:18:53;;;;;;;21.17;14.57;;;;;;;-4.42;87.21;98981.81;5083030;28;20236;-61
2022/12/14 09:21:20;;;;;;;18.63;13.02;;;;;;;-4.46;86.83;98986.34;5080955;28;20222;-61
2022/12/14 09:23:47;;;;;;;23.75;13.00;;;;;;;-4.45;86.25;98988.03;5082491;28;20225;-61
2022/12/14 09:26:15;;;;;;;22.33;14.10;;;;;;;-4.42;86.33;98987.88;5081449;28;20242;-60
2022/12/14 09:28:45;;;;;;;22.10;12.85;;;;;;;-4.32;85.87;98985.66;5082427;28;20288;-60
2022/12/14 09:31:13;;;;;;;22.42;14.75;;;;;;;-4.37;86.18;98991.09;5082171;28;20249;-60
2022/12/14 09:33:40;;;;;;;22.75;15.27;;;;;;;-4.25;86.37;98987.03;5082352;28;20202;-61
2022/12/14 09:36:11;;;;;;;21.98;14.02;;;;;;;-4.12;86.02;98987.22;5079612;28;20453;-61
2022/12/14 09:38:38;;;;;;;21.65;13.50;;;;;;;-4.38;86.00;98989.41;5094939;28;20237;-60
2022/12/14 09:41:07;;;;;;;23.33;14.48;;;;;;;-4.14;86.19;98996.06;5085686;28;20248;-61
2022/12/14 09:43:41;;;;;;;22.15;14.77;;;;;;;-4.19;85.52;98989.31;5082071;28;20218;-61
2022/12/14 09:46:19;;;;;;;28.40;15.55;;;;;;;-4.19;85.68;98993.69;5080839;28;20718;-60
2022/12/14 09:48:46;;;;;;;24.98;15.15;;;;;;;-4.25;85.17;98984.41;5092244;28;20624;-60
2022/12/14 09:51:16;;;;;;;21.17;13.85;;;;;;;-4.21;85.45;98983.31;5091191;28;20222;-60
2022/12/14 09:53:44;;;;;;;26.67;15.73;;;;;;;-4.35;85.84;98985.81;5082690;28;20191;-61
2022/12/14 09:56:14;;;;;;;25.05;13.80;;;;;;;-4.27;86.15;98990.63;5080450;28;20262;-61
2022/12/14 09:58:47;;;;;;;23.83;13.50;;;;;;;-4.29;85.47;98989.84;5089301;28;20225;-61
2022/12/14 10:01:41;;;;;;;23.55;15.02;;;;;;;-4.22;85.53;98988.63;5096016;28;20303;-61
2022/12/14 10:04:16;;;;;;;25.17;14.93;;;;;;;-4.06;84.63;98991.28;5061608;28;20191;-61
2022/12/14 10:06:48;;;;;;;23.08;16.08;;;;;;;-4.05;84.15;98987.75;5073829;28;20283;-61
2022/12/14 10:09:19;;;;;;;22.10;13.65;;;;;;;-2.67;82.77;98982.81;5082901;28;20221;-60
2022/12/14 10:11:51;;;;;;;22.48;13.68;;;;;;;-2.31;78.59;98973.75;5080276;28;20309;-61
2022/12/14 10:14:26;;;;;;;20.95;13.40;;;;;;;-1.19;76.97;98971.25;5093751;28;20474;-61
2022/12/14 10:17:00;;;;;;;21.80;12.50;;;;;;;-0.53;71.82;98966.13;5091310;28;20297;-61
2022/12/14 10:19:33;;;;;;;19.80;11.70;;;;;;;0.93;65.35;98963.91;5080008;28;20449;-61
2022/12/14 10:22:05;;;;;;;17.63;12.10;;;;;;;0.14;64.54;98968.59;5081103;28;20468;-61
2022/12/14 10:24:36;;;;;;;17.07;11.47;;;;;;;0.62;63.14;98969.69;5081936;28;20491;-61
2022/12/14 10:27:03;;;;;;;17.33;10.60;;;;;;;1.63;59.04;98970.19;5080186;28;20483;-61
2022/12/14 10:29:34;;;;;;;13.00;9.90;;;;;;;2.96;55.19;98952.81;5082559;28;20524;-61
2022/12/14 10:32:06;;;;;;;14.60;10.60;;;;;;;2.09;56.37;98952.66;5080944;28;20503;-61
2022/12/14 10:34:34;;;;;;;17.90;9.93;;;;;;;2.39;54.38;98948.59;5081046;28;20472;-61
2022/12/14 10:37:12;;;;;;;15.50;10.00;;;;;;;4.22;48.87;98946.78;5080052;28;20494;-61
2022/12/14 10:39:49;;;;;;;15.13;10.50;;;;;;;3.67;50.48;98946.16;5081380;28;20448;-60
2022/12/14 10:42:20;;;;;;;15.53;9.90;;;;;;;3.11;49.97;98945.47;5080432;28;20525;-58
2022/12/14 10:44:56;;;;;;;12.73;9.47;;;;;;;3.91;49.39;98948.56;5081350;28;20452;-58
2022/12/14 10:47:27;;;;;;;17.53;9.70;;;;;;;4.44;47.23;98937.78;5080616;28;20476;-59
2022/12/14 10:49:59;;;;;;;13.00;9.80;;;;;;;4.02;48.02;98931.75;5060318;28;20430;-61
2022/12/14 10:52:29;;;;;;;12.20;8.73;;;;;;;3.02;48.72;98927.69;5074117;28;20502;-61
2022/12/14 10:55:00;;;;;;;10.20;7.77;;;;;;;2.56;48.88;98923.50;5080981;28;20492;-61
2022/12/14 10:57:27;;;;;;;11.40;8.70;;;;;;;2.49;50.77;98923.16;5079112;28;20663;-60
2022/12/14 10:59:55;;;;;;;9.63;7.80;;;;;;;2.74;49.24;98929.97;5080975;28;20441;-60
2022/12/14 11:02:23;;;;;;;11.70;8.40;;;;;;;2.89;48.67;98927.03;5078967;28;20548;-61
2022/12/14 11:04:51;;;;;;;17.37;8.20;;;;;;;2.69;50.62;98931.28;5079594;28;20453;-61
2022/12/14 11:07:20;;;;;;;12.77;8.50;;;;;;;2.30;51.18;98925.59;5080437;28;20845;-61
2022/12/14 11:09:48;;;;;;;15.03;8.50;;;;;;;2.36;50.31;98910.13;5081541;28;20470;-60
2022/12/14 11:12:20;;;;;;;11.87;9.60;;;;;;;1.75;52.35;98912.25;5078511;28;20472;-61
2022/12/14 11:14:55;;;;;;;11.97;9.17;;;;;;;2.45;51.51;98901.47;5062135;28;20517;-60
2022/12/14 11:17:37;;;;;;;13.30;8.30;;;;;;;2.86;48.94;98903.53;5079862;28;20610;-61
2022/12/14 11:20:15;;;;;;;13.27;7.40;;;;;;;3.04;48.78;98906.47;5079827;28;20491;-60
2022/12/14 11:22:46;;;;;;;10.67;7.60;;;;;;;2.77;49.79;98911.22;5075429;28;20460;-61
2022/12/14 11:25:35;;;;;;;13.40;8.40;;;;;;;3.41;47.78;98908.72;5070129;28;20551;-61
2022/12/14 11:28:05;;;;;;;15.40;8.17;;;;;;;3.15;48.69;98904.63;5080061;28;20976;-61
2022/12/14 11:30:32;;;;;;;11.93;8.70;;;;;;;3.00;47.49;98909.38;5079820;28;20483;-60
2022/12/14 11:32:58;;;;;;;11.70;8.77;;;;;;;3.37;47.28;98895.75;5080120;28;20448;-61
2022/12/14 11:35:25;;;;;;;11.50;8.53;;;;;;;3.23;48.22;98895.22;5079009;28;20480;-61
2022/12/14 11:37:58;;;;;;;12.30;7.57;;;;;;;3.15;47.44;98893.22;5078442;28;20500;-61
2022/12/14 11:40:26;;;;;;;13.60;8.17;;;;;;;3.35;46.54;98900.34;5078751;28;20955;-61